sensor_id;sensor_type;location;lat;lon;timestamp;P1;durP1;ratioP1;P2;durP2;ratioP2
6358;SDS011;3212;51.460;11.868;2023-02-01T00:01:59;4.87;;;2.20;;
6358;SDS011;3212;51.460;11.868;2023-02-01T00:05:22;4.50;;;2.20;;
6358;SDS011;3212;51.460;11.868;2023-02-01T00:08:45;12.03;;;2.57;;
6358;SDS011;3212;51.460;11.868;2023-02-01T00:12:07;3.90;;;2.00;;
6358;SDS011;3212;51.460;11.868;2023-02-01T00:15:30;5.93;;;2.00;;
6358;SDS011;3212;51.460;11.868;2023-02-01T00:18:58;18.23;;;2.87;;
6358;SDS011;3212;51.460;11.868;2023-02-01T00:22:15;10.13;;;2.43;;
6358;SDS011;3212;51.460;11.868;2023-02-01T00:25:37;4.70;;;2.42;;
6358;SDS011;3212;51.460;11.868;2023-02-01T00:29:01;10.90;;;2.33;;
6358;SDS011;3212;51.460;11.868;2023-02-01T00:32:23;8.30;;;2.47;;
6358;SDS011;3212;51.460;11.868;2023-02-01T00:35:46;13.07;;;2.60;;
6358;SDS011;3212;51.460;11.868;2023-02-01T00:39:10;5.90;;;2.00;;
6358;SDS011;3212;51.460;11.868;2023-02-01T00:42:32;7.85;;;2.10;;
6358;SDS011;3212;51.460;11.868;2023-02-01T00:45:55;9.83;;;3.20;;
6358;SDS011;3212;51.460;11.868;2023-02-01T00:49:17;8.30;;;2.30;;
6358;SDS011;3212;51.460;11.868;2023-02-01T00:52:40;7.57;;;3.20;;
6358;SDS011;3212;51.460;11.868;2023-02-01T00:56:03;6.17;;;2.50;;
6358;SDS011;3212;51.460;11.868;2023-02-01T00:59:26;11.98;;;2.55;;
6358;SDS011;3212;51.460;11.868;2023-02-01T01:02:48;14.00;;;2.80;;
6358;SDS011;3212;51.460;11.868;2023-02-01T01:06:12;12.50;;;2.50;;
6358;SDS011;3212;51.460;11.868;2023-02-01T01:09:34;8.77;;;2.40;;
6358;SDS011;3212;51.460;11.868;2023-02-01T01:12:56;6.80;;;2.30;;
6358;SDS011;3212;51.460;11.868;2023-02-01T01:16:19;6.33;;;2.30;;
6358;SDS011;3212;51.460;11.868;2023-02-01T01:19:41;7.40;;;2.50;;
6358;SDS011;3212;51.460;11.868;2023-02-01T01:23:05;11.50;;;2.57;;
6358;SDS011;3212;51.460;11.868;2023-02-01T01:26:27;7.30;;;2.80;;
6358;SDS011;3212;51.460;11.868;2023-02-01T01:29:49;10.83;;;2.60;;
6358;SDS011;3212;51.460;11.868;2023-02-01T01:33:12;7.20;;;2.40;;
6358;SDS011;3212;51.460;11.868;2023-02-01T01:36:34;9.50;;;2.60;;
6358;SDS011;3212;51.460;11.868;2023-02-01T01:39:57;11.87;;;3.03;;
6358;SDS011;3212;51.460;11.868;2023-02-01T01:43:19;7.53;;;2.60;;
6358;SDS011;3212;51.460;11.868;2023-02-01T01:46:42;6.37;;;2.33;;
6358;SDS011;3212;51.460;11.868;2023-02-01T01:50:06;8.77;;;2.53;;
6358;SDS011;3212;51.460;11.868;2023-02-01T01:53:31;10.60;;;3.00;;
6358;SDS011;3212;51.460;11.868;2023-02-01T01:56:53;7.17;;;2.60;;
6358;SDS011;3212;51.460;11.868;2023-02-01T02:00:15;8.70;;;2.50;;
6358;SDS011;3212;51.460;11.868;2023-02-01T02:03:40;13.37;;;2.70;;
6358;SDS011;3212;51.460;11.868;2023-02-01T02:07:08;9.30;;;2.50;;
6358;SDS011;3212;51.460;11.868;2023-02-01T02:10:28;8.20;;;2.40;;
6358;SDS011;3212;51.460;11.868;2023-02-01T02:14:08;8.70;;;2.67;;
6358;SDS011;3212;51.460;11.868;2023-02-01T02:17:49;5.87;;;1.97;;
6358;SDS011;3212;51.460;11.868;2023-02-01T02:21:15;8.40;;;2.67;;
6358;SDS011;3212;51.460;11.868;2023-02-01T02:24:55;12.10;;;3.30;;
6358;SDS011;3212;51.460;11.868;2023-02-01T02:32:11;6.07;;;3.20;;
6358;SDS011;3212;51.460;11.868;2023-02-01T02:35:41;12.43;;;3.30;;
6358;SDS011;3212;51.460;11.868;2023-02-01T02:46:38;6.83;;;2.30;;
6358;SDS011;3212;51.460;11.868;2023-02-01T02:50:12;10.90;;;2.60;;
6358;SDS011;3212;51.460;11.868;2023-02-01T02:57:28;12.80;;;3.10;;
6358;SDS011;3212;51.460;11.868;2023-02-01T03:00:53;6.30;;;3.13;;
6358;SDS011;3212;51.460;11.868;2023-02-01T03:04:22;7.60;;;2.90;;
6358;SDS011;3212;51.460;11.868;2023-02-01T03:07:46;6.07;;;2.40;;
6358;SDS011;3212;51.460;11.868;2023-02-01T03:11:22;10.50;;;2.70;;
6358;SDS011;3212;51.460;11.868;2023-02-01T03:14:45;14.67;;;3.97;;
6358;SDS011;3212;51.460;11.868;2023-02-01T03:18:11;10.53;;;2.90;;
6358;SDS011;3212;51.460;11.868;2023-02-01T03:21:35;9.63;;;3.07;;
6358;SDS011;3212;51.460;11.868;2023-02-01T03:25:00;3.93;;;2.00;;
6358;SDS011;3212;51.460;11.868;2023-02-01T03:28:21;7.57;;;2.63;;
6358;SDS011;3212;51.460;11.868;2023-02-01T03:31:44;10.97;;;3.37;;
6358;SDS011;3212;51.460;11.868;2023-02-01T03:35:06;7.07;;;2.53;;
6358;SDS011;3212;51.460;11.868;2023-02-01T03:38:30;7.43;;;2.80;;
6358;SDS011;3212;51.460;11.868;2023-02-01T03:41:55;12.33;;;2.70;;
6358;SDS011;3212;51.460;11.868;2023-02-01T03:45:19;6.55;;;2.55;;
6358;SDS011;3212;51.460;11.868;2023-02-01T03:48:49;12.53;;;2.40;;
6358;SDS011;3212;51.460;11.868;2023-02-01T03:52:13;13.07;;;2.90;;
6358;SDS011;3212;51.460;11.868;2023-02-01T03:55:39;7.50;;;2.70;;
6358;SDS011;3212;51.460;11.868;2023-02-01T03:59:01;11.80;;;3.03;;
6358;SDS011;3212;51.460;11.868;2023-02-01T04:02:24;16.12;;;3.05;;
6358;SDS011;3212;51.460;11.868;2023-02-01T04:05:48;12.13;;;3.00;;
6358;SDS011;3212;51.460;11.868;2023-02-01T04:09:10;9.73;;;2.83;;
6358;SDS011;3212;51.460;11.868;2023-02-01T04:12:33;16.10;;;2.60;;
6358;SDS011;3212;51.460;11.868;2023-02-01T04:15:55;10.33;;;2.63;;
6358;SDS011;3212;51.460;11.868;2023-02-01T04:19:18;8.45;;;2.70;;
6358;SDS011;3212;51.460;11.868;2023-02-01T04:22:42;6.80;;;2.67;;
6358;SDS011;3212;51.460;11.868;2023-02-01T04:26:04;6.70;;;2.20;;
6358;SDS011;3212;51.460;11.868;2023-02-01T04:29:26;7.30;;;2.10;;
6358;SDS011;3212;51.460;11.868;2023-02-01T04:32:49;13.70;;;2.43;;
6358;SDS011;3212;51.460;11.868;2023-02-01T04:36:11;6.70;;;2.70;;
6358;SDS011;3212;51.460;11.868;2023-02-01T04:39:34;5.18;;;2.25;;
6358;SDS011;3212;51.460;11.868;2023-02-01T04:42:57;6.73;;;2.23;;
6358;SDS011;3212;51.460;11.868;2023-02-01T04:46:19;7.10;;;2.30;;
6358;SDS011;3212;51.460;11.868;2023-02-01T04:49:42;3.93;;;2.23;;
6358;SDS011;3212;51.460;11.868;2023-02-01T04:53:05;6.80;;;2.00;;
6358;SDS011;3212;51.460;11.868;2023-02-01T04:56:27;6.40;;;2.00;;
6358;SDS011;3212;51.460;11.868;2023-02-01T04:59:50;11.10;;;2.47;;
6358;SDS011;3212;51.460;11.868;2023-02-01T05:03:12;6.97;;;2.67;;
6358;SDS011;3212;51.460;11.868;2023-02-01T05:06:34;9.03;;;2.83;;
6358;SDS011;3212;51.460;11.868;2023-02-01T05:09:58;5.13;;;2.00;;
6358;SDS011;3212;51.460;11.868;2023-02-01T05:13:20;8.03;;;2.93;;
6358;SDS011;3212;51.460;11.868;2023-02-01T05:16:48;4.20;;;2.35;;
6358;SDS011;3212;51.460;11.868;2023-02-01T05:20:11;7.70;;;2.90;;
6358;SDS011;3212;51.460;11.868;2023-02-01T05:23:34;12.70;;;2.63;;
6358;SDS011;3212;51.460;11.868;2023-02-01T05:26:57;5.80;;;2.50;;
6358;SDS011;3212;51.460;11.868;2023-02-01T05:30:19;8.63;;;2.27;;
6358;SDS011;3212;51.460;11.868;2023-02-01T05:33:42;6.47;;;2.63;;
6358;SDS011;3212;51.460;11.868;2023-02-01T05:37:04;5.90;;;3.20;;
6358;SDS011;3212;51.460;11.868;2023-02-01T05:40:27;5.63;;;2.70;;
6358;SDS011;3212;51.460;11.868;2023-02-01T05:43:49;6.27;;;2.63;;
6358;SDS011;3212;51.460;11.868;2023-02-01T05:47:11;14.57;;;2.80;;
6358;SDS011;3212;51.460;11.868;2023-02-01T05:50:34;9.37;;;3.30;;
6358;SDS011;3212;51.460;11.868;2023-02-01T05:53:56;14.20;;;3.13;;
6358;SDS011;3212;51.460;11.868;2023-02-01T05:57:19;8.93;;;2.30;;
6358;SDS011;3212;51.460;11.868;2023-02-01T06:00:41;8.63;;;2.80;;
6358;SDS011;3212;51.460;11.868;2023-02-01T06:04:04;7.20;;;3.00;;
6358;SDS011;3212;51.460;11.868;2023-02-01T06:07:26;10.87;;;2.73;;
6358;SDS011;3212;51.460;11.868;2023-02-01T06:10:49;7.73;;;2.67;;
6358;SDS011;3212;51.460;11.868;2023-02-01T06:14:12;15.47;;;2.80;;
6358;SDS011;3212;51.460;11.868;2023-02-01T06:17:35;6.80;;;2.73;;
6358;SDS011;3212;51.460;11.868;2023-02-01T06:20:58;9.43;;;3.07;;
6358;SDS011;3212;51.460;11.868;2023-02-01T06:24:23;8.40;;;2.90;;
6358;SDS011;3212;51.460;11.868;2023-02-01T06:27:46;6.47;;;2.93;;
6358;SDS011;3212;51.460;11.868;2023-02-01T06:31:09;7.47;;;3.37;;
6358;SDS011;3212;51.460;11.868;2023-02-01T06:34:31;4.93;;;2.63;;
6358;SDS011;3212;51.460;11.868;2023-02-01T06:37:53;7.60;;;2.90;;
6358;SDS011;3212;51.460;11.868;2023-02-01T06:41:16;10.70;;;2.90;;
6358;SDS011;3212;51.460;11.868;2023-02-01T06:44:39;6.93;;;3.07;;
6358;SDS011;3212;51.460;11.868;2023-02-01T06:48:01;8.73;;;2.87;;
6358;SDS011;3212;51.460;11.868;2023-02-01T06:51:25;9.63;;;2.70;;
6358;SDS011;3212;51.460;11.868;2023-02-01T06:54:46;10.43;;;2.80;;
6358;SDS011;3212;51.460;11.868;2023-02-01T06:58:09;9.30;;;3.17;;
6358;SDS011;3212;51.460;11.868;2023-02-01T07:01:32;11.40;;;3.00;;
6358;SDS011;3212;51.460;11.868;2023-02-01T07:04:56;7.50;;;3.23;;
6358;SDS011;3212;51.460;11.868;2023-02-01T07:08:23;10.57;;;3.13;;
6358;SDS011;3212;51.460;11.868;2023-02-01T07:11:45;6.90;;;2.97;;
6358;SDS011;3212;51.460;11.868;2023-02-01T07:15:07;7.97;;;3.40;;
6358;SDS011;3212;51.460;11.868;2023-02-01T07:18:31;11.57;;;3.37;;
6358;SDS011;3212;51.460;11.868;2023-02-01T07:21:54;8.30;;;2.73;;
6358;SDS011;3212;51.460;11.868;2023-02-01T07:25:16;6.50;;;2.70;;
6358;SDS011;3212;51.460;11.868;2023-02-01T07:28:41;6.70;;;2.90;;
6358;SDS011;3212;51.460;11.868;2023-02-01T07:32:03;12.23;;;3.00;;
6358;SDS011;3212;51.460;11.868;2023-02-01T07:35:25;7.00;;;3.23;;
6358;SDS011;3212;51.460;11.868;2023-02-01T07:38:48;8.57;;;2.80;;
6358;SDS011;3212;51.460;11.868;2023-02-01T07:42:11;4.47;;;2.50;;
6358;SDS011;3212;51.460;11.868;2023-02-01T07:45:34;5.73;;;2.87;;
6358;SDS011;3212;51.460;11.868;2023-02-01T07:48:57;7.40;;;2.57;;
6358;SDS011;3212;51.460;11.868;2023-02-01T07:52:20;8.83;;;2.90;;
6358;SDS011;3212;51.460;11.868;2023-02-01T07:55:42;5.40;;;2.77;;
6358;SDS011;3212;51.460;11.868;2023-02-01T07:59:05;6.93;;;2.90;;
6358;SDS011;3212;51.460;11.868;2023-02-01T08:02:28;11.13;;;2.97;;
6358;SDS011;3212;51.460;11.868;2023-02-01T08:05:53;4.13;;;2.47;;
6358;SDS011;3212;51.460;11.868;2023-02-01T08:09:17;9.53;;;2.57;;
6358;SDS011;3212;51.460;11.868;2023-02-01T08:12:41;8.83;;;2.77;;
6358;SDS011;3212;51.460;11.868;2023-02-01T08:16:04;5.50;;;2.70;;
6358;SDS011;3212;51.460;11.868;2023-02-01T08:19:26;8.32;;;2.55;;
6358;SDS011;3212;51.460;11.868;2023-02-01T08:22:49;3.73;;;1.83;;
6358;SDS011;3212;51.460;11.868;2023-02-01T08:26:14;3.50;;;2.50;;
6358;SDS011;3212;51.460;11.868;2023-02-01T08:29:35;3.00;;;2.53;;
6358;SDS011;3212;51.460;11.868;2023-02-01T08:32:58;7.13;;;2.60;;
6358;SDS011;3212;51.460;11.868;2023-02-01T08:36:21;6.70;;;2.93;;
6358;SDS011;3212;51.460;11.868;2023-02-01T08:39:43;5.87;;;2.37;;
6358;SDS011;3212;51.460;11.868;2023-02-01T08:43:07;5.90;;;2.40;;
6358;SDS011;3212;51.460;11.868;2023-02-01T08:46:30;6.00;;;3.30;;
6358;SDS011;3212;51.460;11.868;2023-02-01T08:49:52;6.50;;;3.00;;
6358;SDS011;3212;51.460;11.868;2023-02-01T08:53:14;11.90;;;3.90;;
6358;SDS011;3212;51.460;11.868;2023-02-01T08:56:38;5.63;;;2.80;;
6358;SDS011;3212;51.460;11.868;2023-02-01T09:00:00;6.63;;;3.00;;
6358;SDS011;3212;51.460;11.868;2023-02-01T09:03:22;3.47;;;2.80;;
6358;SDS011;3212;51.460;11.868;2023-02-01T09:06:45;9.73;;;3.40;;
6358;SDS011;3212;51.460;11.868;2023-02-01T09:10:08;10.20;;;3.60;;
6358;SDS011;3212;51.460;11.868;2023-02-01T09:13:31;14.10;;;3.80;;
6358;SDS011;3212;51.460;11.868;2023-02-01T09:16:54;12.03;;;3.73;;
6358;SDS011;3212;51.460;11.868;2023-02-01T09:20:16;9.30;;;3.83;;
6358;SDS011;3212;51.460;11.868;2023-02-01T09:23:39;8.53;;;4.17;;
6358;SDS011;3212;51.460;11.868;2023-02-01T09:27:02;9.40;;;3.47;;
6358;SDS011;3212;51.460;11.868;2023-02-01T09:30:24;5.07;;;3.50;;
6358;SDS011;3212;51.460;11.868;2023-02-01T09:33:47;7.00;;;3.00;;
6358;SDS011;3212;51.460;11.868;2023-02-01T09:37:09;8.50;;;5.33;;
6358;SDS011;3212;51.460;11.868;2023-02-01T09:40:33;6.10;;;3.20;;
6358;SDS011;3212;51.460;11.868;2023-02-01T09:43:59;9.63;;;3.80;;
6358;SDS011;3212;51.460;11.868;2023-02-01T09:47:19;5.13;;;3.20;;
6358;SDS011;3212;51.460;11.868;2023-02-01T09:50:41;11.20;;;3.90;;
6358;SDS011;3212;51.460;11.868;2023-02-01T09:54:11;12.53;;;3.67;;
6358;SDS011;3212;51.460;11.868;2023-02-01T09:57:31;9.17;;;3.50;;
6358;SDS011;3212;51.460;11.868;2023-02-01T10:00:51;14.73;;;3.33;;
6358;SDS011;3212;51.460;11.868;2023-02-01T10:04:14;12.20;;;3.50;;
6358;SDS011;3212;51.460;11.868;2023-02-01T10:07:41;11.37;;;3.80;;
6358;SDS011;3212;51.460;11.868;2023-02-01T10:11:05;7.57;;;3.07;;
6358;SDS011;3212;51.460;11.868;2023-02-01T10:18:19;3.87;;;2.20;;
6358;SDS011;3212;51.460;11.868;2023-02-01T10:21:42;7.47;;;2.63;;
6358;SDS011;3212;51.460;11.868;2023-02-01T10:28:46;4.50;;;2.13;;
6358;SDS011;3212;51.460;11.868;2023-02-01T10:32:11;7.00;;;2.40;;
6358;SDS011;3212;51.460;11.868;2023-02-01T10:35:33;4.50;;;2.07;;
6358;SDS011;3212;51.460;11.868;2023-02-01T10:38:54;7.23;;;2.47;;
6358;SDS011;3212;51.460;11.868;2023-02-01T10:42:17;8.77;;;3.00;;
6358;SDS011;3212;51.460;11.868;2023-02-01T10:45:40;8.90;;;2.40;;
6358;SDS011;3212;51.460;11.868;2023-02-01T10:49:03;5.40;;;2.10;;
6358;SDS011;3212;51.460;11.868;2023-02-01T10:56:07;7.80;;;2.50;;
6358;SDS011;3212;51.460;11.868;2023-02-01T10:59:30;4.27;;;2.20;;
6358;SDS011;3212;51.460;11.868;2023-02-01T11:02:53;10.80;;;3.30;;
6358;SDS011;3212;51.460;11.868;2023-02-01T11:06:25;11.00;;;4.20;;
6358;SDS011;3212;51.460;11.868;2023-02-01T11:09:49;11.83;;;6.00;;
6358;SDS011;3212;51.460;11.868;2023-02-01T11:13:14;20.00;;;9.00;;
6358;SDS011;3212;51.460;11.868;2023-02-01T11:16:36;13.03;;;5.17;;
6358;SDS011;3212;51.460;11.868;2023-02-01T11:20:00;10.70;;;5.30;;
6358;SDS011;3212;51.460;11.868;2023-02-01T11:23:23;11.10;;;5.27;;
6358;SDS011;3212;51.460;11.868;2023-02-01T11:26:46;5.83;;;2.67;;
6358;SDS011;3212;51.460;11.868;2023-02-01T11:30:14;6.07;;;3.70;;
6358;SDS011;3212;51.460;11.868;2023-02-01T11:33:33;21.70;;;7.50;;
6358;SDS011;3212;51.460;11.868;2023-02-01T11:36:57;15.93;;;8.23;;
6358;SDS011;3212;51.460;11.868;2023-02-01T11:40:23;9.70;;;3.73;;
6358;SDS011;3212;51.460;11.868;2023-02-01T11:43:52;13.30;;;3.40;;
6358;SDS011;3212;51.460;11.868;2023-02-01T11:50:53;10.20;;;4.50;;
6358;SDS011;3212;51.460;11.868;2023-02-01T11:54:31;12.67;;;4.17;;
6358;SDS011;3212;51.460;11.868;2023-02-01T11:57:57;11.80;;;4.33;;
6358;SDS011;3212;51.460;11.868;2023-02-01T12:04:59;7.80;;;3.83;;
6358;SDS011;3212;51.460;11.868;2023-02-01T12:08:26;16.60;;;4.60;;
6358;SDS011;3212;51.460;11.868;2023-02-01T12:12:02;14.63;;;5.30;;
6358;SDS011;3212;51.460;11.868;2023-02-01T12:19:23;7.90;;;4.17;;
6358;SDS011;3212;51.460;11.868;2023-02-01T12:26:38;6.60;;;3.47;;
6358;SDS011;3212;51.460;11.868;2023-02-01T12:34:09;10.67;;;3.37;;
6358;SDS011;3212;51.460;11.868;2023-02-01T12:37:38;12.07;;;5.07;;
6358;SDS011;3212;51.460;11.868;2023-02-01T12:41:05;4.70;;;2.60;;
6358;SDS011;3212;51.460;11.868;2023-02-01T12:44:32;4.77;;;2.60;;
6358;SDS011;3212;51.460;11.868;2023-02-01T12:47:55;6.83;;;3.10;;
6358;SDS011;3212;51.460;11.868;2023-02-01T12:51:18;7.00;;;2.77;;
6358;SDS011;3212;51.460;11.868;2023-02-01T12:54:52;6.07;;;3.90;;
6358;SDS011;3212;51.460;11.868;2023-02-01T12:58:20;7.60;;;3.23;;
6358;SDS011;3212;51.460;11.868;2023-02-01T13:01:41;6.13;;;3.10;;
6358;SDS011;3212;51.460;11.868;2023-02-01T13:05:11;4.47;;;2.63;;
6358;SDS011;3212;51.460;11.868;2023-02-01T13:08:34;5.33;;;3.00;;
6358;SDS011;3212;51.460;11.868;2023-02-01T13:12:06;7.00;;;3.50;;
6358;SDS011;3212;51.460;11.868;2023-02-01T13:15:28;9.57;;;4.33;;
6358;SDS011;3212;51.460;11.868;2023-02-01T13:18:50;15.23;;;6.70;;
6358;SDS011;3212;51.460;11.868;2023-02-01T13:22:15;14.97;;;4.70;;
6358;SDS011;3212;51.460;11.868;2023-02-01T13:25:45;7.77;;;3.57;;
6358;SDS011;3212;51.460;11.868;2023-02-01T13:29:08;12.00;;;4.83;;
6358;SDS011;3212;51.460;11.868;2023-02-01T13:32:35;8.07;;;3.50;;
6358;SDS011;3212;51.460;11.868;2023-02-01T13:43:30;10.80;;;3.20;;
6358;SDS011;3212;51.460;11.868;2023-02-01T13:46:54;9.37;;;3.53;;
6358;SDS011;3212;51.460;11.868;2023-02-01T13:50:24;6.60;;;2.80;;
6358;SDS011;3212;51.460;11.868;2023-02-01T13:53:48;16.03;;;7.10;;
6358;SDS011;3212;51.460;11.868;2023-02-01T14:00:53;12.23;;;5.70;;
6358;SDS011;3212;51.460;11.868;2023-02-01T14:11:31;14.60;;;6.63;;
6358;SDS011;3212;51.460;11.868;2023-02-01T14:14:54;4.83;;;3.00;;
6358;SDS011;3212;51.460;11.868;2023-02-01T14:21:52;6.90;;;2.80;;
6358;SDS011;3212;51.460;11.868;2023-02-01T14:25:16;8.33;;;2.70;;
6358;SDS011;3212;51.460;11.868;2023-02-01T14:32:20;11.23;;;5.30;;
6358;SDS011;3212;51.460;11.868;2023-02-01T14:35:42;10.30;;;3.30;;
6358;SDS011;3212;51.460;11.868;2023-02-01T14:39:16;6.93;;;3.23;;
6358;SDS011;3212;51.460;11.868;2023-02-01T14:42:34;4.93;;;3.20;;
6358;SDS011;3212;51.460;11.868;2023-02-01T14:45:56;6.40;;;3.40;;
6358;SDS011;3212;51.460;11.868;2023-02-01T14:49:19;9.73;;;3.27;;
6358;SDS011;3212;51.460;11.868;2023-02-01T14:52:44;7.50;;;3.37;;
6358;SDS011;3212;51.460;11.868;2023-02-01T14:56:09;9.73;;;3.10;;
6358;SDS011;3212;51.460;11.868;2023-02-01T14:59:30;7.40;;;3.30;;
6358;SDS011;3212;51.460;11.868;2023-02-01T15:02:54;12.27;;;5.30;;
6358;SDS011;3212;51.460;11.868;2023-02-01T15:06:27;7.97;;;4.33;;
6358;SDS011;3212;51.460;11.868;2023-02-01T15:09:52;6.30;;;4.23;;
6358;SDS011;3212;51.460;11.868;2023-02-01T15:13:18;8.57;;;4.30;;
6358;SDS011;3212;51.460;11.868;2023-02-01T15:16:41;7.97;;;3.00;;
6358;SDS011;3212;51.460;11.868;2023-02-01T15:23:41;6.07;;;2.90;;
6358;SDS011;3212;51.460;11.868;2023-02-01T15:27:04;6.00;;;3.63;;
6358;SDS011;3212;51.460;11.868;2023-02-01T15:30:27;6.33;;;3.40;;
6358;SDS011;3212;51.460;11.868;2023-02-01T15:33:55;6.43;;;3.03;;
6358;SDS011;3212;51.460;11.868;2023-02-01T15:37:17;6.80;;;3.60;;
6358;SDS011;3212;51.460;11.868;2023-02-01T15:40:52;7.80;;;2.77;;
6358;SDS011;3212;51.460;11.868;2023-02-01T15:44:04;0.60;;;0.60;;
6358;SDS011;3212;51.460;11.868;2023-02-01T15:47:26;1.43;;;0.60;;
6358;SDS011;3212;51.460;11.868;2023-02-01T15:50:48;1.53;;;0.70;;
6358;SDS011;3212;51.460;11.868;2023-02-01T15:54:15;0.50;;;0.50;;
6358;SDS011;3212;51.460;11.868;2023-02-01T15:57:36;0.40;;;0.40;;
6358;SDS011;3212;51.460;11.868;2023-02-01T16:00:58;0.70;;;0.60;;
6358;SDS011;3212;51.460;11.868;2023-02-01T16:04:24;0.53;;;0.50;;
6358;SDS011;3212;51.460;11.868;2023-02-01T16:07:53;0.63;;;0.50;;
6358;SDS011;3212;51.460;11.868;2023-02-01T16:14:47;1.03;;;0.93;;
6358;SDS011;3212;51.460;11.868;2023-02-01T16:18:10;0.87;;;0.70;;
6358;SDS011;3212;51.460;11.868;2023-02-01T16:21:31;0.57;;;0.50;;
6358;SDS011;3212;51.460;11.868;2023-02-01T16:24:54;0.60;;;0.50;;
6358;SDS011;3212;51.460;11.868;2023-02-01T16:28:16;1.97;;;1.00;;
6358;SDS011;3212;51.460;11.868;2023-02-01T16:31:39;0.80;;;0.70;;
6358;SDS011;3212;51.460;11.868;2023-02-01T16:35:02;1.63;;;0.80;;
6358;SDS011;3212;51.460;11.868;2023-02-01T16:38:25;3.27;;;1.20;;
6358;SDS011;3212;51.460;11.868;2023-02-01T16:41:48;2.27;;;1.87;;
6358;SDS011;3212;51.460;11.868;2023-02-01T16:45:11;1.50;;;1.40;;
6358;SDS011;3212;51.460;11.868;2023-02-01T16:48:35;2.30;;;1.10;;
6358;SDS011;3212;51.460;11.868;2023-02-01T16:51:57;2.40;;;1.90;;
6358;SDS011;3212;51.460;11.868;2023-02-01T16:55:21;3.63;;;2.60;;
6358;SDS011;3212;51.460;11.868;2023-02-01T16:58:44;4.03;;;2.27;;
6358;SDS011;3212;51.460;11.868;2023-02-01T17:02:09;2.47;;;1.30;;
6358;SDS011;3212;51.460;11.868;2023-02-01T17:05:32;1.40;;;1.10;;
6358;SDS011;3212;51.460;11.868;2023-02-01T17:08:57;1.83;;;0.90;;
6358;SDS011;3212;51.460;11.868;2023-02-01T17:12:27;1.30;;;0.80;;
6358;SDS011;3212;51.460;11.868;2023-02-01T17:15:56;2.07;;;1.13;;
6358;SDS011;3212;51.460;11.868;2023-02-01T17:19:21;1.08;;;0.90;;
6358;SDS011;3212;51.460;11.868;2023-02-01T17:22:44;3.73;;;2.13;;
6358;SDS011;3212;51.460;11.868;2023-02-01T17:26:08;11.53;;;5.67;;
6358;SDS011;3212;51.460;11.868;2023-02-01T17:29:29;21.90;;;10.43;;
6358;SDS011;3212;51.460;11.868;2023-02-01T17:32:52;3.67;;;2.77;;
6358;SDS011;3212;51.460;11.868;2023-02-01T17:36:16;1.67;;;1.50;;
6358;SDS011;3212;51.460;11.868;2023-02-01T17:39:37;1.90;;;1.20;;
6358;SDS011;3212;51.460;11.868;2023-02-01T17:43:08;1.00;;;0.90;;
6358;SDS011;3212;51.460;11.868;2023-02-01T17:46:28;0.70;;;0.70;;
6358;SDS011;3212;51.460;11.868;2023-02-01T17:49:51;0.80;;;0.80;;
6358;SDS011;3212;51.460;11.868;2023-02-01T17:53:13;1.10;;;1.10;;
6358;SDS011;3212;51.460;11.868;2023-02-01T17:56:36;2.63;;;1.77;;
6358;SDS011;3212;51.460;11.868;2023-02-01T17:59:59;1.90;;;0.90;;
6358;SDS011;3212;51.460;11.868;2023-02-01T18:03:23;0.97;;;0.73;;
6358;SDS011;3212;51.460;11.868;2023-02-01T18:06:44;0.70;;;0.70;;
6358;SDS011;3212;51.460;11.868;2023-02-01T18:10:08;1.00;;;0.90;;
6358;SDS011;3212;51.460;11.868;2023-02-01T18:13:30;3.17;;;1.00;;
6358;SDS011;3212;51.460;11.868;2023-02-01T18:16:52;1.00;;;0.90;;
6358;SDS011;3212;51.460;11.868;2023-02-01T18:20:15;1.10;;;1.00;;
6358;SDS011;3212;51.460;11.868;2023-02-01T18:23:39;3.20;;;1.00;;
6358;SDS011;3212;51.460;11.868;2023-02-01T18:27:01;3.33;;;1.87;;
6358;SDS011;3212;51.460;11.868;2023-02-01T18:30:24;1.37;;;1.10;;
6358;SDS011;3212;51.460;11.868;2023-02-01T18:33:46;1.83;;;1.00;;
6358;SDS011;3212;51.460;11.868;2023-02-01T18:37:08;1.43;;;1.00;;
6358;SDS011;3212;51.460;11.868;2023-02-01T18:40:32;1.77;;;1.20;;
6358;SDS011;3212;51.460;11.868;2023-02-01T18:43:55;2.50;;;1.37;;
6358;SDS011;3212;51.460;11.868;2023-02-01T18:47:18;1.33;;;1.23;;
6358;SDS011;3212;51.460;11.868;2023-02-01T18:50:41;2.50;;;1.10;;
6358;SDS011;3212;51.460;11.868;2023-02-01T18:54:03;0.97;;;0.90;;
6358;SDS011;3212;51.460;11.868;2023-02-01T18:57:25;2.03;;;1.40;;
6358;SDS011;3212;51.460;11.868;2023-02-01T19:00:48;2.30;;;1.10;;
6358;SDS011;3212;51.460;11.868;2023-02-01T19:04:12;2.20;;;1.03;;
6358;SDS011;3212;51.460;11.868;2023-02-01T19:07:34;1.17;;;1.00;;
6358;SDS011;3212;51.460;11.868;2023-02-01T19:10:57;3.47;;;1.60;;
6358;SDS011;3212;51.460;11.868;2023-02-01T19:14:20;1.57;;;1.00;;
6358;SDS011;3212;51.460;11.868;2023-02-01T19:17:44;1.33;;;1.10;;
6358;SDS011;3212;51.460;11.868;2023-02-01T19:21:07;1.33;;;1.00;;
6358;SDS011;3212;51.460;11.868;2023-02-01T19:24:28;17.53;;;2.43;;
6358;SDS011;3212;51.460;11.868;2023-02-01T19:27:52;2.90;;;1.30;;
6358;SDS011;3212;51.460;11.868;2023-02-01T19:31:14;2.03;;;1.40;;
6358;SDS011;3212;51.460;11.868;2023-02-01T19:34:36;2.83;;;1.70;;
6358;SDS011;3212;51.460;11.868;2023-02-01T19:38:00;2.17;;;1.40;;
6358;SDS011;3212;51.460;11.868;2023-02-01T19:41:23;1.77;;;1.07;;
6358;SDS011;3212;51.460;11.868;2023-02-01T19:44:45;1.67;;;1.33;;
6358;SDS011;3212;51.460;11.868;2023-02-01T19:48:08;2.10;;;1.00;;
6358;SDS011;3212;51.460;11.868;2023-02-01T19:51:31;1.20;;;0.90;;
6358;SDS011;3212;51.460;11.868;2023-02-01T19:54:53;3.83;;;1.50;;
6358;SDS011;3212;51.460;11.868;2023-02-01T19:58:16;1.73;;;1.27;;
6358;SDS011;3212;51.460;11.868;2023-02-01T20:01:39;4.27;;;1.57;;
6358;SDS011;3212;51.460;11.868;2023-02-01T20:05:01;3.30;;;1.40;;
6358;SDS011;3212;51.460;11.868;2023-02-01T20:08:24;4.70;;;1.40;;
6358;SDS011;3212;51.460;11.868;2023-02-01T20:11:46;2.10;;;1.40;;
6358;SDS011;3212;51.460;11.868;2023-02-01T20:15:09;2.77;;;1.60;;
6358;SDS011;3212;51.460;11.868;2023-02-01T20:18:33;1.80;;;1.40;;
6358;SDS011;3212;51.460;11.868;2023-02-01T20:21:57;4.23;;;1.70;;
6358;SDS011;3212;51.460;11.868;2023-02-01T20:25:20;6.00;;;1.87;;
6358;SDS011;3212;51.460;11.868;2023-02-01T20:28:42;4.50;;;2.10;;
6358;SDS011;3212;51.460;11.868;2023-02-01T20:32:05;2.63;;;1.70;;
6358;SDS011;3212;51.460;11.868;2023-02-01T20:35:28;8.80;;;2.57;;
6358;SDS011;3212;51.460;11.868;2023-02-01T20:38:50;2.60;;;1.90;;
6358;SDS011;3212;51.460;11.868;2023-02-01T20:42:12;4.40;;;2.00;;
6358;SDS011;3212;51.460;11.868;2023-02-01T20:45:39;2.92;;;1.83;;
6358;SDS011;3212;51.460;11.868;2023-02-01T20:49:02;2.73;;;1.60;;
6358;SDS011;3212;51.460;11.868;2023-02-01T20:52:24;3.73;;;2.00;;
6358;SDS011;3212;51.460;11.868;2023-02-01T20:55:50;2.42;;;1.73;;
6358;SDS011;3212;51.460;11.868;2023-02-01T20:59:12;5.10;;;1.70;;
6358;SDS011;3212;51.460;11.868;2023-02-01T21:02:35;5.00;;;1.53;;
6358;SDS011;3212;51.460;11.868;2023-02-01T21:05:57;5.80;;;2.00;;
6358;SDS011;3212;51.460;11.868;2023-02-01T21:09:20;3.83;;;1.63;;
6358;SDS011;3212;51.460;11.868;2023-02-01T21:12:44;2.15;;;1.20;;
6358;SDS011;3212;51.460;11.868;2023-02-01T21:16:11;2.20;;;1.20;;
6358;SDS011;3212;51.460;11.868;2023-02-01T21:19:32;10.10;;;2.43;;
6358;SDS011;3212;51.460;11.868;2023-02-01T21:22:54;7.70;;;2.23;;
6358;SDS011;3212;51.460;11.868;2023-02-01T21:26:18;4.13;;;2.50;;
6358;SDS011;3212;51.460;11.868;2023-02-01T21:29:39;5.07;;;2.00;;
6358;SDS011;3212;51.460;11.868;2023-02-01T21:33:02;4.80;;;2.73;;
6358;SDS011;3212;51.460;11.868;2023-02-01T21:36:24;9.80;;;3.97;;
6358;SDS011;3212;51.460;11.868;2023-02-01T21:39:47;6.03;;;2.90;;
6358;SDS011;3212;51.460;11.868;2023-02-01T21:43:10;8.40;;;3.50;;
6358;SDS011;3212;51.460;11.868;2023-02-01T21:46:32;10.50;;;4.03;;
6358;SDS011;3212;51.460;11.868;2023-02-01T21:49:54;12.70;;;5.60;;
6358;SDS011;3212;51.460;11.868;2023-02-01T21:53:17;2.87;;;1.40;;
6358;SDS011;3212;51.460;11.868;2023-02-01T21:56:39;2.20;;;1.17;;
6358;SDS011;3212;51.460;11.868;2023-02-01T22:00:03;4.97;;;1.00;;